• Join FlightAware (Why Join?)
  • Login
  • US Flag GB Flag 
01:34 EST


 

Airport Tracker/Info


-or-


 

Live Flight TrackerFlight Track Log ✈ FFT919 ✈ 18-Jul-2013 ✈ KTTN - KRDU

Flight Track Log - Related Links

Times and Time Zones

All times are in EDT time to prevent confusion due to time zone crossing. See the FFT919 flight status page for this flight to view local times or setup timezone preferences in your user account.

Time Position Orientation Groundspeed Altitude Reporting Facility
EDT Latitude Longitude Course Direction KTS MPH feet Rate Location/Type
06:41 40.2667 -74.8333 217° Southwest 158 182 1,000  Level Philadelphia TRACON
06:41 40.2333 -74.8667 217° Southwest 196 226 2,200 1,560 Climbing Philadelphia TRACON
06:42 40.1833 -74.9333 226° Southwest 268 308 4,100 2,280 Climbing Philadelphia TRACON
06:43 40.1333 -74.9833 217° Southwest 282 325 6,900 1,500 Climbing Philadelphia TRACON
06:44 40.0500 -75.0333 205° Southwest 288 331 7,100 1,440 Climbing Philadelphia TRACON
06:45 39.9833 -75.0833 210° Southwest 292 336 9,800 1,500 Climbing Philadelphia TRACON
06:47 39.8253 -75.1836 206° Southwest 365 420 11,700 1,020 Climbing Washington Center
06:49 39.7358 -75.2408 206° Southwest 365 420 13,000 1,920 Climbing Washington Center
06:50 39.6422 -75.3006 206° Southwest 365 420 15,600 2,400 Climbing Washington Center
06:50 39.5403 -75.3225 189° South 365 420 17,800 2,100 Climbing Washington Center
06:52 39.4319 -75.3417 188° South 384 442 19,800 1,920 Climbing Washington Center
06:53 39.3217 -75.3636 189° South 397 457 21,800 1,620 Climbing Washington Center
06:53 39.2069 -75.3828 187° South 408 470 23,000 540 Climbing Washington Center
06:55 39.0925 -75.3964 185° South 408 470 22,900  Descending Washington Center
06:56 38.9797 -75.4181 188° South 413 475 23,000 60 Climbing Washington Center
06:57 38.8653 -75.4344 186° South 413 475 23,100 840 Climbing Washington Center
06:57 38.7506 -75.4506 186° South 413 475 24,700 1,740 Climbing Washington Center
06:59 38.6317 -75.4694 187° South 424 488 26,600 1,860 Climbing Washington Center
07:00 38.5150 -75.4908 188° South 429 494 28,500 1,620 Climbing Washington Center
07:01 38.4108 -75.5600 207° Southwest 418 481 30,000 1,380 Climbing Washington Center
07:01 38.3044 -75.6472 213° Southwest 418 481 31,300 960 Climbing Washington Center
07:03 38.2086 -75.7264 213° Southwest 423 487 32,000 300 Climbing Washington Center
07:04 38.1103 -75.8081 213° Southwest 423 487 32,000  Level Washington Center
07:04 38.0122 -75.8869 212° Southwest 423 487 32,000  Level Washington Center
07:05 37.9139 -75.9681 213° Southwest 423 487 32,000  Level Washington Center
07:06 37.8156 -76.0467 212° Southwest 423 487 32,000 -60 Level Washington Center
07:08 37.7214 -76.1325 216° Southwest 423 487 31,900  Descending Washington Center
07:09 37.6211 -76.2053 210° Southwest 423 487 32,000 -540 Climbing Washington Center
07:10 37.5247 -76.2831 213° Southwest 418 481 30,900 -1,980 Descending Washington Center
07:10 37.4261 -76.3608 212° Southwest 418 481 28,200 -2,640 Descending Washington Center
07:11 37.3275 -76.4381 212° Southwest 418 481 25,800 -2,100 Descending Washington Center
07:13 37.2372 -76.5258 218° Southwest 418 481 24,000 -960 Descending Washington Center
07:14 37.1697 -76.6319 231° Southwest 405 466 23,900 -540 Descending Washington Center
07:15 37.1061 -76.7353 232° Southwest 392 451 23,000 -480 Descending Washington Center
07:15 37.0425 -76.8331 231° Southwest 380 437 23,000  Level Washington Center
07:17 36.9747 -76.9358 230° Southwest 375 432 23,000  Level Washington Center
07:17 36.9108 -77.0361 231° Southwest 375 432 23,000  Level Washington Center
07:19 36.8492 -77.1311 231° Southwest 375 432 23,000  Level Washington Center
07:20 36.7853 -77.2308 231° Southwest 375 432 23,000  Level Washington Center
07:20 36.7194 -77.3281 230° Southwest 375 432 23,000  Level Washington Center
07:22 36.6594 -77.4278 233° Southwest 375 432 23,000 -600 Level Washington Center
07:23 36.5953 -77.5244 230° Southwest 375 432 21,800 -1,740 Descending Washington Center
07:24 36.5311 -77.6211 230° Southwest 375 432 19,600 -2,220 Descending Washington Center
07:24 36.4733 -77.7100 231° Southwest 375 432 17,500 -2,040 Descending Washington Center
07:25 36.4047 -77.8139 231° Southwest 370 426 15,700 -1,860 Descending Washington Center
07:27 36.3422 -77.9075 230° Southwest 364 419 13,800 -1,440 Descending Washington Center
07:28 36.2842 -77.9986 232° Southwest 357 411 12,800 -1,320 Descending Washington Center
07:28 36.2303 -78.0819 231° Southwest 338 389 11,300 -1,380 Descending Washington Center
07:29 36.1722 -78.1650 229° Southwest 320 368 10,100 -1,260 Descending Washington Center
07:31 36.1350 -78.2436 240° Southwest 308 354 8,800 -1,500 Descending Washington Center
07:32 36.1017 -78.3428 247° West 292 336 7,100 -1,560 Descending Washington Center
07:33 36.0786 -78.4267 251° West 292 336 5,700 -1,560 Descending Washington Center
07:33 36.0533 -78.5261 253° West 287 330 4,100 -1,260 Descending Washington Center
07:35 36.0283 -78.6125 250° West 277 319 3,200 -960 Descending Washington Center
07:35 35.9850 -78.6725 228° Southwest 251 289 2,200 -720 Descending Washington Center
07:37 35.9486 -78.7119 221° Southwest 227 261 1,800 -660 Descending Washington Center
07:38 35.8947 -78.7764 224° Southwest 125 144 500 -840 Descending Washington Center
07:40 35.8776 -78.7875 North  Level Estimated